Time;durP1;ratioP1;P1;durP2;ratioP2;P2;SDS_P1;SDS_P2;PMS_P1;PMS_P2;Temp;Humidity;BMP_temperature;BMP_pressure;BME280_temperature;BME280_humidity;BME280_pressure;Samples;Min_cycle;Max_cycle;Signal;HPM_P1;HPM_P2
2022/01/11 00:01:14;;;;;;;26.80;11.90;;;;;;;-2.47;89.10;101672.73;104806;1280;71706;-68
2022/01/11 00:03:53;;;;;;;25.50;11.50;;;;;;;-2.40;88.87;101676.21;104821;1280;61079;-67
2022/01/11 00:07:29;;;;;;;26.60;11.00;;;;;;;-2.38;88.48;101677.09;104347;1280;60949;-67
2022/01/11 00:10:35;;;;;;;24.20;11.30;;;;;;;-2.37;88.53;101674.84;104804;1280;73319;-67
2022/01/11 00:13:52;;;;;;;21.90;10.20;;;;;;;-2.34;88.46;101678.33;105086;1272;67852;-67
2022/01/11 00:17:24;;;;;;;22.10;10.40;;;;;;;-2.33;88.19;101680.75;105209;1271;72036;-68
2022/01/11 00:20:16;;;;;;;22.90;10.10;;;;;;;-2.31;88.24;101679.54;105153;1272;59753;-67
2022/01/11 00:26:25;;;;;;;24.30;10.90;;;;;;;-2.30;88.27;101683.37;104518;1273;1003840;-67
2022/01/11 00:29:30;;;;;;;31.60;13.20;;;;;;;-2.27;88.36;101684.77;104648;1273;1003313;-67
2022/01/11 00:32:43;;;;;;;28.50;13.50;;;;;;;-2.22;88.12;101683.90;105014;1273;73034;-67
2022/01/11 00:35:43;;;;;;;24.60;11.20;;;;;;;-2.16;88.03;101686.69;105162;1273;59589;-67
2022/01/11 00:38:38;;;;;;;22.20;11.60;;;;;;;-2.11;87.90;101687.91;104942;1274;60648;-70
2022/01/11 00:41:29;;;;;;;24.60;10.40;;;;;;;-2.05;87.84;101689.14;104834;1273;73505;-67
2022/01/11 00:44:18;;;;;;;22.20;9.40;;;;;;;-1.99;87.57;101694.52;105101;1273;66720;-67
2022/01/11 00:47:08;;;;;;;21.20;9.70;;;;;;;-1.95;87.63;101696.61;105043;1271;72977;-67
2022/01/11 00:50:08;;;;;;;17.00;8.80;;;;;;;-1.90;87.91;101698.86;104803;1271;59727;-67
2022/01/11 00:53:02;;;;;;;18.70;8.70;;;;;;;-1.86;87.60;101705.32;105113;1271;60508;-67
2022/01/11 00:56:00;;;;;;;18.20;8.60;;;;;;;-1.83;87.46;101705.48;105225;1271;73168;-67
2022/01/11 00:58:53;;;;;;;17.00;7.60;;;;;;;-1.80;87.41;101703.05;104792;1273;68486;-67
2022/01/11 01:01:44;;;;;;;21.30;10.40;;;;;;;-1.78;87.12;101702.86;104415;1273;1003463;-67
2022/01/11 01:04:43;;;;;;;23.80;9.80;;;;;;;-1.75;87.08;101699.39;104328;1273;1014740;-67
2022/01/11 01:07:35;;;;;;;18.40;8.70;;;;;;;-1.69;86.93;101702.16;105321;1273;60458;-67
2022/01/11 01:10:39;;;;;;;19.10;9.10;;;;;;;-1.65;86.84;101700.60;105012;1273;73501;-68
2022/01/11 01:13:35;;;;;;;20.30;8.70;;;;;;;-1.60;86.67;101701.46;105303;1273;68686;-67
2022/01/11 01:16:30;;;;;;;20.70;8.70;;;;;;;-1.57;86.40;101702.85;105057;1271;73391;-67
2022/01/11 01:19:35;;;;;;;15.80;7.40;;;;;;;-1.54;86.33;101710.50;105102;1271;59649;-68
2022/01/11 01:22:41;;;;;;;16.30;7.40;;;;;;;-1.52;86.38;101706.51;105103;1271;60917;-68
2022/01/11 01:25:34;;;;;;;15.70;7.30;;;;;;;-1.51;86.40;101714.17;105175;1271;74196;-68
2022/01/11 01:28:44;;;;;;;18.10;8.20;;;;;;;-1.52;86.36;101712.42;105082;1271;67102;-68
2022/01/11 01:31:34;;;;;;;19.00;8.10;;;;;;;-1.55;86.30;101712.95;105132;1274;73090;-68
2022/01/11 01:34:27;;;;;;;20.70;8.70;;;;;;;-1.57;86.59;101711.73;105265;1273;59801;-68
2022/01/11 01:37:23;;;;;;;19.10;8.80;;;;;;;-1.58;86.59;101713.48;105075;1273;60443;-68
2022/01/11 01:40:16;;;;;;;20.20;8.80;;;;;;;-1.58;86.61;101715.92;104253;1272;1003129;-67
2022/01/11 01:43:16;;;;;;;20.50;9.20;;;;;;;-1.57;86.84;101717.13;105130;1271;68794;-67
2022/01/11 01:46:18;;;;;;;18.60;8.60;;;;;;;-1.57;86.84;101717.65;103709;1272;1003647;-68
2022/01/11 01:49:25;;;;;;;34.20;11.30;;;;;;;-1.56;87.05;101715.91;105531;1273;59757;-67
2022/01/11 01:52:35;;;;;;;106.00;27.50;;;;;;;-1.56;87.04;101715.91;104823;1273;60413;-67
2022/01/11 01:55:31;;;;;;;120.70;32.60;;;;;;;-1.59;87.08;101720.62;105112;1273;73599;-67
2022/01/11 01:58:37;;;;;;;121.80;37.00;;;;;;;-1.62;87.16;101720.45;104832;1274;68224;-68
2022/01/11 02:02:09;;;;;;;127.60;37.60;;;;;;;-1.66;87.44;101715.57;105325;1273;73324;-68
2022/01/11 02:05:15;;;;;;;114.80;34.20;;;;;;;-1.70;87.60;101716.80;105269;1272;59781;-68
2022/01/11 02:08:09;;;;;;;99.10;33.80;;;;;;;-1.76;87.66;101720.46;104281;1274;1003418;-67
2022/01/11 02:11:09;;;;;;;103.00;34.50;;;;;;;-1.83;87.45;101720.28;105222;1271;72545;-69
2022/01/11 02:14:02;;;;;;;69.80;27.00;;;;;;;-1.91;87.78;101721.49;104996;1271;68120;-68
2022/01/11 02:17:21;;;;;;;39.70;17.30;;;;;;;-1.97;87.67;101715.93;105133;1271;71174;-68
2022/01/11 02:20:19;;;;;;;37.00;17.30;;;;;;;-2.05;87.82;101720.98;104515;1273;1003098;-68
2022/01/11 02:23:35;;;;;;;36.10;17.60;;;;;;;-2.11;87.73;101724.25;105158;1271;60501;-67
2022/01/11 02:26:31;;;;;;;37.70;16.60;;;;;;;-2.17;88.24;101726.51;105297;1271;73135;-68
2022/01/11 02:29:23;;;;;;;28.70;13.70;;;;;;;-2.24;88.48;101725.45;104854;1271;67695;-67
2022/01/11 02:32:14;;;;;;;23.20;11.60;;;;;;;-2.30;88.54;101727.35;104802;1273;72166;-68
2022/01/11 02:35:16;;;;;;;23.20;11.10;;;;;;;-2.39;88.71;101728.04;105222;1273;59768;-68
2022/01/11 02:38:11;;;;;;;23.40;11.60;;;;;;;-2.47;89.09;101725.58;105249;1274;60595;-68
2022/01/11 02:41:12;;;;;;;27.20;12.10;;;;;;;-2.55;89.20;101724.52;105309;1273;73633;-68
2022/01/11 02:44:06;;;;;;;29.10;14.40;;;;;;;-2.62;89.64;101727.97;105374;1273;68665;-68
2022/01/11 02:47:20;;;;;;;25.70;13.30;;;;;;;-2.69;90.06;101730.02;105086;1273;73138;-68
2022/01/11 02:50:24;;;;;;;30.70;14.20;;;;;;;-2.76;90.07;101729.48;105111;1273;59605;-68
2022/01/11 02:54:55;;;;;;;49.20;19.70;;;;;;;-2.81;90.29;101731.39;104956;1274;59615;-69
2022/01/11 02:58:09;;;;;;;;;;;;;;;;;;;;;
2022/01/11 03:01:44;;;;;;;40.40;18.10;;;;;;;-2.90;90.92;101729.60;105340;1271;67991;-68
2022/01/11 03:04:38;;;;;;;26.10;12.40;;;;;;;-2.91;91.36;101727.51;104822;1273;73240;-67
2022/01/11 03:07:39;;;;;;;24.40;11.90;;;;;;;-2.92;91.47;101723.34;105148;1273;59681;-67
2022/01/11 03:10:45;;;;;;;21.70;10.20;;;;;;;-2.95;91.13;101724.88;105369;1271;60799;-67
2022/01/11 03:13:55;;;;;;;20.50;9.20;;;;;;;-2.98;91.49;101726.44;105296;1273;73263;-67
2022/01/11 03:16:53;;;;;;;20.80;10.50;;;;;;;-3.03;91.49;101728.66;105051;1273;68548;-68
2022/01/11 03:19:59;;;;;;;23.00;10.60;;;;;;;-3.08;91.62;101730.02;104286;1277;1003160;-67
2022/01/11 03:23:12;;;;;;;25.80;11.90;;;;;;;-3.14;91.67;101730.88;104783;1277;59851;-67
2022/01/11 03:26:14;;;;;;;26.60;11.80;;;;;;;-3.17;92.02;101728.77;104295;1279;59776;-67
2022/01/11 03:29:23;;;;;;;23.30;11.10;;;;;;;-3.20;91.83;101731.17;105301;1278;72060;-68
2022/01/11 03:36:06;;;;;;;24.60;11.50;;;;;;;-3.22;92.32;101742.80;104555;1277;71830;-67
2022/01/11 03:38:55;;;;;;;22.60;10.10;;;;;;;-3.19;92.55;101746.80;104767;1278;59768;-67
2022/01/11 03:42:01;;;;;;;21.30;10.50;;;;;;;-3.19;92.43;101748.90;104687;1279;59772;-68
2022/01/11 03:44:54;;;;;;;26.40;12.70;;;;;;;-3.21;92.24;101746.10;104593;1279;72332;-67
2022/01/11 03:48:15;;;;;;;28.90;13.90;;;;;;;-3.25;92.48;101742.60;104560;1279;68117;-67
2022/01/11 03:51:25;;;;;;;32.50;14.90;;;;;;;-3.30;92.38;101741.52;104783;1278;71476;-68
2022/01/11 03:54:50;;;;;;;39.20;16.70;;;;;;;-3.37;92.39;101738.20;104741;1279;59685;-67
2022/01/11 03:58:02;;;;;;;45.80;20.50;;;;;;;-3.45;92.60;101743.70;105126;1274;60464;-68
2022/01/11 04:00:59;;;;;;;49.00;20.50;;;;;;;-3.50;92.56;101744.00;104854;1272;71022;-68
2022/01/11 04:04:10;;;;;;;43.90;19.40;;;;;;;-3.56;92.84;101741.19;104583;1271;1003063;-67
2022/01/11 04:07:10;;;;;;;40.90;18.90;;;;;;;-3.59;93.04;101737.88;105170;1272;71504;-69
2022/01/11 04:14:38;;;;;;;35.70;15.80;;;;;;;-3.65;93.30;101747.19;105306;1271;59349;-67
2022/01/11 04:17:47;;;;;;;28.50;12.40;;;;;;;-3.65;93.86;101747.36;105156;1271;72161;-68
2022/01/11 04:21:45;;;;;;;32.30;13.50;;;;;;;-3.65;93.73;101745.10;104935;1271;68489;-67
2022/01/11 04:26:18;;;;;;;26.70;11.90;;;;;;;-3.64;94.35;101742.33;104688;1278;74170;-68
2022/01/11 04:31:02;;;;;;;31.80;11.50;;;;;;;-3.64;94.19;101740.59;104399;1285;59988;-67
2022/01/11 04:33:53;;;;;;;30.90;11.20;;;;;;;-3.63;94.53;101743.58;103790;1285;59673;-67
2022/01/11 04:36:59;;;;;;;31.50;12.70;;;;;;;-3.62;95.00;101743.91;103007;1285;1002911;-67
2022/01/11 04:39:50;;;;;;;37.50;15.40;;;;;;;-3.61;95.09;101743.74;103551;1285;68346;-67
2022/01/11 04:42:49;;;;;;;33.10;13.50;;;;;;;-3.58;95.17;101741.35;103335;1285;1002778;-67
2022/01/11 04:45:39;;;;;;;33.80;13.90;;;;;;;-3.58;95.43;101733.19;104011;1287;59696;-67
2022/01/11 04:48:33;;;;;;;38.90;14.20;;;;;;;-3.57;95.56;101734.23;103795;1287;60352;-67
2022/01/11 04:51:49;;;;;;;31.30;13.90;;;;;;;-3.57;95.58;101736.31;103214;1287;1016421;-67
2022/01/11 04:54:43;;;;;;;28.40;12.90;;;;;;;-3.57;95.70;101736.33;103912;1287;67109;-68
2022/01/11 04:58:17;;;;;;;27.80;12.60;;;;;;;-3.55;96.14;101734.95;104221;1287;73396;-68
2022/01/11 05:01:54;;;;;;;28.30;11.10;;;;;;;-3.54;96.35;101730.61;104702;1276;60218;-67
2022/01/11 05:04:49;;;;;;;26.20;10.90;;;;;;;-3.50;96.78;101729.42;104845;1277;59735;-69
2022/01/11 05:07:56;;;;;;;24.20;11.00;;;;;;;-3.52;96.20;101730.11;104715;1277;73550;-68
2022/01/11 05:10:53;;;;;;;26.00;11.30;;;;;;;-3.56;95.84;101732.15;104519;1278;68417;-68
2022/01/11 05:13:45;;;;;;;26.00;10.90;;;;;;;-3.61;96.03;101735.42;104529;1277;72932;-69
2022/01/11 05:17:02;;;;;;;28.30;12.80;;;;;;;-3.65;96.07;101738.69;104964;1271;59738;-68
2022/01/11 05:19:58;;;;;;;31.80;13.20;;;;;;;-3.67;96.39;101746.99;105117;1272;59665;-67
2022/01/11 05:23:02;;;;;;;27.60;13.00;;;;;;;-3.69;96.42;101747.68;104378;1273;1002567;-68
2022/01/11 05:25:54;;;;;;;27.70;12.70;;;;;;;-3.69;96.71;101749.92;105411;1273;66476;-68
2022/01/11 05:28:49;;;;;;;27.50;12.90;;;;;;;-3.69;96.60;101759.48;105617;1273;71834;-69
2022/01/11 05:31:50;;;;;;;27.90;13.40;;;;;;;-3.67;97.02;101759.83;105221;1273;59772;-68
2022/01/11 05:34:40;;;;;;;29.30;13.70;;;;;;;-3.65;97.33;101760.89;105225;1272;59560;-68
2022/01/11 05:37:32;;;;;;;28.10;13.00;;;;;;;-3.63;97.35;101761.27;105372;1272;72262;-68
2022/01/11 05:40:54;;;;;;;24.60;10.10;;;;;;;-3.60;97.48;101763.37;105455;1274;68182;-67
2022/01/11 05:43:58;;;;;;;18.50;8.40;;;;;;;-3.57;97.75;101767.90;104915;1273;73509;-68
2022/01/11 05:47:16;;;;;;;23.10;9.70;;;;;;;-3.56;97.69;101767.02;105286;1273;59705;-67
2022/01/11 05:50:15;;;;;;;19.80;9.30;;;;;;;-3.56;97.79;101769.98;104623;1273;1002950;-69
2022/01/11 05:53:21;;;;;;;22.00;10.70;;;;;;;-3.54;97.74;101775.21;105254;1273;71025;-69
2022/01/11 05:56:22;;;;;;;;;;;;;;;;;;;;;
2022/01/11 05:59:17;;;;;;;24.50;11.10;;;;;;;-3.45;98.16;101781.87;105341;1271;72908;-68
2022/01/11 06:02:36;;;;;;;27.20;11.70;;;;;;;-3.42;98.00;101778.25;105480;1273;59693;-68
2022/01/11 06:05:46;;;;;;;28.10;11.80;;;;;;;-3.37;98.04;101777.08;105632;1273;60164;-69
2022/01/11 06:09:04;;;;;;;;;;;;;;;;;;;;;
2022/01/11 06:12:34;;;;;;;27.10;12.80;;;;;;;-3.17;98.44;101783.98;104339;1271;1003406;-68
2022/01/11 06:15:36;;;;;;;28.90;12.40;;;;;;;-3.08;98.13;101787.52;105040;1273;73177;-68
2022/01/11 06:18:39;;;;;;;22.50;11.30;;;;;;;-2.98;98.49;101785.14;105449;1273;59858;-68
2022/01/11 06:21:55;;;;;;;25.50;11.20;;;;;;;-2.89;98.40;101791.28;105564;1273;59658;-68
2022/01/11 06:25:08;;;;;;;26.60;11.00;;;;;;;-2.79;98.20;101800.54;104438;1273;1002991;-68
2022/01/11 06:28:20;;;;;;;24.10;11.10;;;;;;;-2.72;98.26;101804.73;105156;1273;69359;-68
2022/01/11 06:31:15;;;;;;;27.00;11.90;;;;;;;-2.64;98.26;101810.34;105270;1273;70633;-69
2022/01/11 06:34:55;;;;;;;24.70;11.00;;;;;;;-2.59;98.05;101814.36;105532;1273;60811;-69
2022/01/11 06:37:53;;;;;;;30.80;14.10;;;;;;;-2.53;97.77;101814.38;104855;1273;1003727;-68
2022/01/11 06:41:07;;;;;;;28.20;13.90;;;;;;;-2.49;97.75;101818.74;105373;1272;73578;-68
2022/01/11 06:44:21;;;;;;;29.70;13.90;;;;;;;-2.42;97.60;101820.34;105539;1273;68604;-69
2022/01/11 06:47:34;;;;;;;28.40;14.80;;;;;;;-2.32;98.13;101824.03;105373;1273;71609;-69
2022/01/11 06:50:28;;;;;;;26.90;13.60;;;;;;;-2.22;98.00;101827.55;105391;1271;59701;-68
2022/01/11 06:53:20;;;;;;;29.50;14.00;;;;;;;-2.13;97.86;101834.87;105306;1274;59710;-70
2022/01/11 06:56:09;;;;;;;30.00;13.80;;;;;;;-2.04;97.68;101838.39;105162;1271;73180;-67
2022/01/11 06:59:06;;;;;;;30.30;14.40;;;;;;;-1.96;97.40;101839.28;105178;1274;66818;-70
2022/01/11 07:01:57;;;;;;;27.20;13.20;;;;;;;-1.89;97.46;101846.24;105093;1272;71683;-69
2022/01/11 07:05:55;;;;;;;30.90;13.80;;;;;;;-1.82;97.09;101849.91;105075;1271;1003021;-69
2022/01/11 07:09:51;;;;;;;31.70;14.50;;;;;;;-1.73;96.97;101854.45;105094;1272;59734;-69
2022/01/11 07:12:46;;;;;;;33.80;14.10;;;;;;;-1.70;96.25;101853.95;105145;1273;72291;-68
2022/01/11 07:15:38;;;;;;;30.30;13.50;;;;;;;-1.68;96.06;101857.60;105339;1273;68085;-68
2022/01/11 07:18:47;;;;;;;31.90;14.30;;;;;;;-1.67;95.96;101856.39;105582;1273;71818;-68
2022/01/11 07:21:39;;;;;;;34.80;16.00;;;;;;;-1.69;95.66;101859.52;105220;1271;59595;-69
2022/01/11 07:24:38;;;;;;;33.40;16.90;;;;;;;-1.69;95.67;101866.82;105420;1273;60567;-68
2022/01/11 07:27:52;;;;;;;37.10;16.30;;;;;;;-1.70;95.58;101859.69;105286;1273;72156;-69
2022/01/11 07:31:36;;;;;;;;;;;;;;;;;;;;;
2022/01/11 07:34:56;;;;;;;33.30;15.50;;;;;;;-1.60;95.82;101870.15;105432;1271;72837;-69
2022/01/11 07:38:28;;;;;;;33.30;14.30;;;;;;;-1.44;97.10;101875.92;105571;1272;59606;-69
2022/01/11 07:41:36;;;;;;;35.80;16.00;;;;;;;-1.34;96.74;101877.15;105497;1272;59545;-69
2022/01/11 07:45:08;;;;;;;36.50;15.80;;;;;;;-1.27;96.19;101877.66;105281;1273;73349;-69
2022/01/11 07:48:05;;;;;;;34.60;15.50;;;;;;;-1.22;95.71;101878.36;105171;1272;65705;-68
2022/01/11 07:51:27;;;;;;;31.90;15.20;;;;;;;-1.16;95.25;101879.41;104489;1272;1003706;-69
2022/01/11 07:54:27;;;;;;;34.30;16.20;;;;;;;-1.13;95.09;101879.23;105389;1273;59684;-70
2022/01/11 07:57:18;;;;;;;31.80;15.50;;;;;;;-1.12;95.02;101886.03;105294;1271;59703;-68
2022/01/11 08:00:17;;;;;;;34.00;15.80;;;;;;;-1.06;95.26;101889.16;105527;1273;73434;-71
2022/01/11 08:03:12;;;;;;;29.10;16.00;;;;;;;-1.05;94.84;101887.95;105232;1274;67944;-70
2022/01/11 08:06:26;;;;;;;32.80;16.20;;;;;;;-1.00;94.99;101883.77;105022;1273;71745;-69
2022/01/11 08:09:41;;;;;;;32.60;17.40;;;;;;;-0.97;94.88;101889.34;104587;1272;1003532;-70
2022/01/11 08:16:27;;;;;;;34.10;16.20;;;;;;;-0.88;94.09;101898.56;105818;1273;72032;-69
2022/01/11 08:19:34;;;;;;;44.80;18.30;;;;;;;-0.87;93.93;101897.86;105234;1272;66873;-68
2022/01/11 08:22:53;;;;;;;38.50;17.50;;;;;;;-0.80;94.16;101906.92;105381;1273;73178;-68
2022/01/11 08:25:54;;;;;;;46.60;21.10;;;;;;;-0.77;93.81;101909.02;105245;1272;59669;-69
2022/01/11 08:28:44;;;;;;;54.10;21.60;;;;;;;-0.76;93.99;101914.75;105276;1273;59541;-69
2022/01/11 08:31:39;;;;;;;43.00;18.20;;;;;;;-0.76;93.73;101914.06;105348;1273;72135;-68
2022/01/11 08:34:58;;;;;;;42.10;17.30;;;;;;;-0.78;93.38;101910.93;104585;1277;1003131;-69
2022/01/11 08:38:02;;;;;;;45.10;18.80;;;;;;;-0.81;93.34;101918.25;104577;1278;71799;-69
2022/01/11 08:40:53;;;;;;;50.40;22.00;;;;;;;-0.81;93.39;101923.13;104942;1279;59756;-70
2022/01/11 08:44:12;;;;;;;54.40;23.20;;;;;;;-0.80;93.55;101926.43;104807;1278;60446;-69
2022/01/11 08:47:21;;;;;;;47.80;21.10;;;;;;;-0.78;93.64;101926.44;104717;1278;73432;-69
2022/01/11 08:51:05;;;;;;;43.30;19.50;;;;;;;-0.73;93.66;101933.41;104851;1278;69077;-70
2022/01/11 08:54:03;;;;;;;47.10;20.70;;;;;;;-0.69;93.58;101940.03;104771;1278;72902;-70
2022/01/11 08:57:12;;;;;;;40.70;18.50;;;;;;;-0.63;93.69;101939.67;104755;1278;59418;-69
2022/01/11 09:00:16;;;;;;;40.30;18.50;;;;;;;-0.57;93.48;101943.33;105079;1279;60581;-70
2022/01/11 09:04:14;;;;;;;35.50;16.30;;;;;;;-0.50;93.16;101942.27;104870;1279;73350;-69
2022/01/11 09:07:22;;;;;;;43.20;18.30;;;;;;;-0.48;93.05;101944.73;104322;1284;67366;-70
2022/01/11 09:10:29;;;;;;;36.10;17.10;;;;;;;-0.44;92.97;101938.95;104529;1283;73086;-69
2022/01/11 09:13:37;;;;;;;37.80;18.30;;;;;;;-0.42;92.78;101941.03;104132;1279;1003161;-71
2022/01/11 09:16:56;;;;;;;45.80;20.90;;;;;;;-0.40;92.95;101945.55;104995;1281;60668;-69
2022/01/11 09:19:53;;;;;;;42.60;19.50;;;;;;;-0.36;92.80;101943.80;104586;1280;73354;-69
2022/01/11 09:22:46;;;;;;;47.00;21.50;;;;;;;-0.34;92.56;101939.27;104636;1280;66986;-69
2022/01/11 09:25:49;;;;;;;48.00;21.60;;;;;;;-0.33;92.39;101934.38;104554;1279;72945;-69
2022/01/11 09:29:51;;;;;;;45.40;21.80;;;;;;;-0.25;92.76;101930.87;104563;1283;59697;-70
2022/01/11 09:33:49;;;;;;;41.40;19.20;;;;;;;-0.19;92.23;101925.61;104591;1283;60437;-70
2022/01/11 09:37:04;;;;;;;49.20;23.70;;;;;;;-0.23;91.89;101911.14;104088;1282;73245;-70
2022/01/11 09:40:20;;;;;;;43.80;21.00;;;;;;;-0.21;92.58;101902.60;104357;1283;68340;-71
2022/01/11 09:43:36;;;;;;;37.00;19.20;;;;;;;-0.08;93.19;101902.55;104254;1277;71903;-69
2022/01/11 09:46:34;;;;;;;47.40;21.30;;;;;;;0.03;92.99;101904.25;104969;1275;59882;-69
2022/01/11 09:50:37;;;;;;;43.90;21.90;;;;;;;0.15;91.93;101907.16;105069;1275;59855;-70
2022/01/11 09:53:36;;;;;;;47.10;21.00;;;;;;;0.22;91.39;101905.02;105139;1275;73365;-71
2022/01/11 09:56:53;;;;;;;47.80;23.80;;;;;;;0.34;91.46;101901.64;105015;1276;68014;-69
2022/01/11 10:00:14;;;;;;;42.40;21.70;;;;;;;0.50;91.75;101898.23;105369;1274;71130;-71
2022/01/11 10:04:49;;;;;;;45.20;20.60;;;;;;;0.71;91.31;101897.38;105297;1271;59657;-70
2022/01/11 10:08:32;;;;;;;46.60;23.20;;;;;;;0.92;90.46;101903.16;105052;1280;60492;-70
2022/01/11 10:15:35;;;;;;;39.80;20.30;;;;;;;1.16;89.66;101900.86;104811;1280;67989;-69
2022/01/11 10:20:01;;;;;;;41.20;21.10;;;;;;;1.23;89.18;101902.00;104997;1280;73415;-70
2022/01/11 10:23:57;;;;;;;;;;;;;;;;;;;;;
2022/01/11 10:27:32;;;;;;;40.40;20.80;;;;;;;1.48;88.84;101895.48;104664;1281;59639;-71
2022/01/11 10:31:12;;;;;;;31.30;16.20;;;;;;;1.59;87.55;101889.73;104818;1280;72083;-69
2022/01/11 10:34:48;;;;;;;30.50;15.50;;;;;;;1.64;86.67;101887.77;104603;1279;67959;-70
2022/01/11 10:38:06;;;;;;;33.10;15.90;;;;;;;1.73;86.74;101887.30;105060;1271;73011;-70
2022/01/11 10:45:40;;;;;;;26.70;14.60;;;;;;;1.81;85.79;101890.89;104987;1271;59639;-69
2022/01/11 10:49:35;;;;;;;;;;;;;;;;;;;;;
2022/01/11 10:52:51;;;;;;;34.30;15.90;;;;;;;1.82;85.66;101896.65;104706;1280;68528;-70
2022/01/11 10:56:08;;;;;;;36.40;18.50;;;;;;;1.80;85.78;101898.77;104673;1280;73080;-70
2022/01/11 11:00:17;;;;;;;37.90;20.00;;;;;;;1.80;85.88;101898.23;104377;1280;59865;-70
2022/01/11 11:04:07;;;;;;;39.50;20.70;;;;;;;1.88;85.80;101898.34;104446;1285;59455;-71
2022/01/11 11:08:48;;;;;;;37.00;20.30;;;;;;;1.92;85.25;101901.61;104319;1285;75588;-71
2022/01/11 11:12:49;;;;;;;;;;;;;;;;;;;;;
2022/01/11 11:16:17;;;;;;;37.00;18.00;;;;;;;1.93;85.15;101903.18;103626;1294;73024;-71
2022/01/11 11:19:59;;;;;;;38.80;20.00;;;;;;;1.92;85.09;101902.66;103777;1290;59851;-70
2022/01/11 11:27:56;;;;;;;42.30;21.90;;;;;;;1.76;85.10;101903.55;103961;1291;73272;-71
2022/01/11 11:30:59;;;;;;;43.60;21.50;;;;;;;1.70;85.23;101905.71;103634;1293;67044;-72
2022/01/11 11:35:34;;;;;;;51.70;25.40;;;;;;;1.59;84.83;101900.77;103288;1300;72914;-72
2022/01/11 11:39:20;;;;;;;49.10;24.60;;;;;;;1.55;85.79;101899.91;102552;1300;59729;-73
2022/01/11 11:42:18;;;;;;;53.40;26.50;;;;;;;1.60;85.82;101906.00;102926;1297;59645;-72
2022/01/11 11:45:43;;;;;;;;;;;;;;;;;;;;;
2022/01/11 11:49:02;;;;;;;47.10;24.50;;;;;;;1.68;85.69;101908.36;103662;1294;67419;-72
2022/01/11 11:52:18;;;;;;;48.50;25.20;;;;;;;1.67;85.60;101908.38;103273;1290;71786;-71
2022/01/11 11:56:08;;;;;;;;;;;;;;;;;;;;;
2022/01/11 12:00:23;;;;;;;43.20;21.90;;;;;;;1.66;85.46;101906.10;102926;1290;1003095;-72
2022/01/11 12:03:19;;;;;;;38.20;19.80;;;;;;;1.64;85.09;101896.68;103453;1291;72526;-71
2022/01/11 12:06:31;;;;;;;43.30;21.70;;;;;;;1.55;85.06;101883.13;103936;1290;65797;-74
2022/01/11 12:09:32;;;;;;;45.60;23.50;;;;;;;1.60;85.39;101889.73;103819;1290;71848;-71
2022/01/11 12:12:44;;;;;;;43.30;22.20;;;;;;;1.64;85.54;101890.04;104409;1281;60935;-72
2022/01/11 12:16:38;;;;;;;;;;;;;;;;;;;;;
2022/01/11 12:20:15;;;;;;;39.00;20.60;;;;;;;1.69;85.38;101890.33;105317;1271;72205;-72
2022/01/11 12:23:53;;;;;;;48.90;24.00;;;;;;;1.73;85.06;101888.18;105850;1271;66610;-71
2022/01/11 12:28:08;;;;;;;51.70;24.20;;;;;;;1.72;85.02;101886.10;105308;1271;74085;-70
2022/01/11 12:38:37;;;;;;;47.10;22.10;;;;;;;1.50;85.42;101886.52;103866;1290;60311;-70
2022/01/11 12:56:33;;;;;;;47.30;21.30;;;;;;;1.50;85.93;101877.42;102309;1306;59779;-71
2022/01/11 13:11:24;;;;;;;32.40;14.80;;;;;;;1.54;85.07;101869.50;102280;1306;66691;-71
2022/01/11 13:15:19;;;;;;;31.00;15.00;;;;;;;1.53;84.81;101869.52;102500;1303;72145;-72
2022/01/11 13:20:03;;;;;;;;;;;;;;;;;;;;;
2022/01/11 13:35:12;;;;;;;;;;;;;;;;;;;;;
2022/01/11 13:43:36;;;;;;;42.80;20.00;;;;;;;1.00;85.41;101874.59;102966;1294;59821;-72
2022/01/11 13:46:46;;;;;;;37.60;19.40;;;;;;;0.96;85.84;101875.16;103588;1292;60666;-73
2022/01/11 13:54:16;;;;;;;47.70;21.80;;;;;;;0.83;86.27;101873.34;103844;1288;68085;-72
2022/01/11 13:57:20;;;;;;;50.00;24.90;;;;;;;0.80;86.48;101875.11;103840;1284;70681;-72
2022/01/11 14:01:21;;;;;;;53.20;24.70;;;;;;;0.80;86.67;101878.44;104328;1283;59809;-72
2022/01/11 14:05:18;;;;;;;51.80;25.70;;;;;;;0.79;86.82;101875.82;104446;1283;59654;-73
2022/01/11 14:13:00;;;;;;;57.50;26.70;;;;;;;0.63;87.48;101875.42;104050;1290;66725;-71
2022/01/11 14:15:55;;;;;;;49.90;23.60;;;;;;;0.60;87.85;101878.40;103828;1290;73020;-70
2022/01/11 14:19:21;;;;;;;49.50;24.40;;;;;;;0.53;87.89;101885.80;103773;1290;59844;-71
2022/01/11 14:22:42;;;;;;;58.50;26.70;;;;;;;0.41;88.01;101887.98;104295;1281;60446;-72
2022/01/11 14:26:15;;;;;;;55.40;26.80;;;;;;;0.25;88.22;101885.80;104797;1281;72395;-72
2022/01/11 14:29:27;;;;;;;52.80;24.10;;;;;;;0.16;88.45;101888.29;104723;1281;66935;-72
2022/01/11 14:32:25;;;;;;;45.70;20.60;;;;;;;0.06;88.55;101890.63;104728;1281;73155;-72
2022/01/11 14:35:33;;;;;;;46.50;22.30;;;;;;;-0.06;88.63;101889.11;104833;1282;59664;-72
2022/01/11 14:43:25;;;;;;;37.60;15.20;;;;;;;-0.23;89.70;101890.74;105230;1280;73459;-72
2022/01/11 14:46:20;;;;;;;30.00;12.60;;;;;;;-0.30;90.01;101890.42;104715;1281;68363;-71
2022/01/11 14:49:23;;;;;;;31.70;14.20;;;;;;;-0.37;90.14;101889.04;105704;1271;72902;-71
2022/01/11 14:52:50;;;;;;;26.50;9.80;;;;;;;-0.46;90.46;101886.46;105013;1273;59732;-71
2022/01/11 14:55:47;;;;;;;34.20;14.00;;;;;;;-0.58;91.05;101879.16;105501;1273;60683;-71
2022/01/11 14:58:51;;;;;;;30.90;13.00;;;;;;;-0.66;91.61;101877.27;104925;1273;71085;-71
2022/01/11 15:02:52;;;;;;;33.70;13.80;;;;;;;-0.76;92.48;101882.52;105470;1271;68408;-70
2022/01/11 15:07:35;;;;;;;40.70;16.30;;;;;;;-0.85;93.56;101884.61;105472;1274;72960;-72
2022/01/11 15:12:32;;;;;;;39.30;17.30;;;;;;;-0.85;93.57;101895.41;104684;1280;59671;-72
2022/01/11 15:15:35;;;;;;;45.30;18.80;;;;;;;-0.81;93.78;101893.51;104981;1279;59823;-72
2022/01/11 15:18:25;;;;;;;49.20;20.70;;;;;;;-0.81;94.02;101894.02;104932;1279;73566;-72
2022/01/11 15:21:19;;;;;;;55.20;22.10;;;;;;;-0.81;93.91;101894.04;104664;1279;68747;-70
2022/01/11 15:24:11;;;;;;;54.40;22.70;;;;;;;-0.81;94.08;101891.92;104886;1280;73147;-70
2022/01/11 15:27:21;;;;;;;49.60;23.30;;;;;;;-0.80;93.97;101894.55;104908;1279;59739;-71
2022/01/11 15:30:43;;;;;;;48.60;21.40;;;;;;;-0.80;94.10;101890.00;104864;1280;60769;-71
2022/01/11 15:33:34;;;;;;;53.60;20.40;;;;;;;-0.80;94.00;101898.04;104661;1279;72222;-69
2022/01/11 15:37:04;;;;;;;50.40;21.70;;;;;;;-0.87;93.65;101897.34;103643;1281;1003798;-70
2022/01/11 15:40:01;;;;;;;61.50;26.40;;;;;;;-0.90;93.99;101900.84;104662;1278;73049;-69
2022/01/11 15:43:05;;;;;;;68.40;28.50;;;;;;;-0.93;93.97;101905.02;104467;1281;59601;-71
2022/01/11 15:46:00;;;;;;;65.10;28.60;;;;;;;-0.92;93.93;101904.67;104414;1279;61183;-70
2022/01/11 15:49:05;;;;;;;66.30;29.30;;;;;;;-0.88;94.56;101901.00;104953;1272;71057;-70
2022/01/11 15:52:07;;;;;;;63.80;28.40;;;;;;;-0.87;94.09;101899.45;104989;1271;67170;-70
2022/01/11 15:59:20;;;;;;;53.80;25.20;;;;;;;-0.81;93.87;101890.72;105073;1271;59731;-71
2022/01/11 16:02:40;;;;;;;48.20;23.70;;;;;;;-0.78;93.81;101884.95;105541;1271;59970;-70
2022/01/11 16:07:07;;;;;;;63.10;25.50;;;;;;;-0.74;93.87;101887.39;104657;1277;74995;-69
2022/01/11 16:11:13;;;;;;;73.60;29.70;;;;;;;-0.75;93.40;101889.48;105159;1277;69295;-70
2022/01/11 16:14:03;;;;;;;68.30;27.40;;;;;;;-0.76;93.64;101892.98;104900;1277;73224;-70
2022/01/11 16:17:40;;;;;;;69.50;28.60;;;;;;;-0.77;93.51;101897.16;104749;1277;59671;-70
2022/01/11 16:20:36;;;;;;;64.20;30.20;;;;;;;-0.80;93.36;101900.30;105236;1278;60364;-71
2022/01/11 16:27:16;;;;;;;65.60;29.40;;;;;;;-0.81;93.40;101907.97;104698;1277;67004;-70
2022/01/11 16:30:31;;;;;;;56.10;25.90;;;;;;;-0.81;93.45;101910.23;105039;1277;72821;-70
2022/01/11 16:33:31;;;;;;;55.50;24.40;;;;;;;-0.81;93.31;101910.93;105148;1277;59731;-69
2022/01/11 16:36:51;;;;;;;54.70;25.50;;;;;;;-0.82;93.04;101909.89;104891;1277;60648;-70